Time;durP1;ratioP1;P1;durP2;ratioP2;P2;SDS_P1;SDS_P2;PMS_P1;PMS_P2;Temp;Humidity;BMP_temperature;BMP_pressure;BME280_temperature;BME280_humidity;BME280_pressure;Samples;Min_cycle;Max_cycle;Signal;HPM_P1;HPM_P2
2022/10/13 00:02:24;;;;;;;;;;;11.80;99.90;;;;;;5075467;28;19904;-65
2022/10/13 00:04:49;;;;;;;;;;;11.80;99.90;;;;;;5075626;28;19911;-66
2022/10/13 00:07:15;;;;;;;;;;;11.80;99.90;;;;;;5074932;28;19911;-66
2022/10/13 00:09:40;;;;;;;;;;;11.80;99.90;;;;;;5075372;28;20102;-65
2022/10/13 00:12:06;;;;;;;;;;;11.90;99.90;;;;;;5075123;28;19954;-66
2022/10/13 00:14:32;;;;;;;;;;;11.80;99.90;;;;;;5075393;28;20393;-66
2022/10/13 00:16:57;;;;;;;;;;;11.80;99.90;;;;;;5074792;28;20398;-65
2022/10/13 00:19:23;;;;;;;;;;;11.80;99.90;;;;;;5075361;28;20026;-65
2022/10/13 00:21:48;;;;;;;;;;;11.80;99.90;;;;;;5074700;28;19913;-66
2022/10/13 00:24:14;;;;;;;;;;;11.80;99.90;;;;;;5074940;28;19908;-66
2022/10/13 00:26:40;;;;;;;;;;;11.60;99.90;;;;;;5074810;28;19928;-66
2022/10/13 00:29:06;;;;;;;;;;;11.70;99.90;;;;;;5075137;28;19905;-65
2022/10/13 00:31:32;;;;;;;;;;;11.70;99.90;;;;;;5075135;28;19912;-65
2022/10/13 00:33:58;;;;;;;;;;;11.80;99.90;;;;;;5074814;28;19905;-65
2022/10/13 00:36:24;;;;;;;;;;;11.90;99.90;;;;;;5074619;28;20358;-65
2022/10/13 00:38:50;;;;;;;;;;;12.00;99.90;;;;;;5074531;28;19958;-65
2022/10/13 00:41:16;;;;;;;;;;;12.00;99.90;;;;;;5075036;28;19919;-66
2022/10/13 00:44:02;;;;;;;;;;;12.10;99.90;;;;;;5074369;28;20259;-65
2022/10/13 00:46:28;;;;;;;;;;;12.00;99.90;;;;;;5074628;28;19908;-65
2022/10/13 00:48:55;;;;;;;;;;;12.00;99.90;;;;;;5074473;28;20275;-66
2022/10/13 00:51:23;;;;;;;;;;;11.90;99.90;;;;;;5074175;28;20011;-66
2022/10/13 00:53:49;;;;;;;;;;;11.90;99.90;;;;;;5074921;28;19904;-66
2022/10/13 00:56:16;;;;;;;;;;;11.80;99.90;;;;;;5074200;28;20290;-66
2022/10/13 00:58:42;;;;;;;;;;;11.80;99.90;;;;;;5073075;28;19911;-66
2022/10/13 01:01:09;;;;;;;;;;;11.90;99.90;;;;;;5074350;28;20011;-65
2022/10/13 01:03:35;;;;;;;;;;;11.80;99.90;;;;;;5074133;28;20001;-66
2022/10/13 01:06:02;;;;;;;;;;;11.90;99.90;;;;;;5074387;28;19905;-66
2022/10/13 01:08:27;;;;;;;;;;;11.90;99.90;;;;;;5074367;28;19904;-65
2022/10/13 01:11:11;;;;;;;;;;;11.80;99.90;;;;;;5075064;28;19915;-66
2022/10/13 01:13:37;;;;;;;;;;;11.90;99.90;;;;;;5074464;28;20041;-66
2022/10/13 01:16:14;;;;;;;;;;;12.00;99.90;;;;;;5073950;28;19999;-65
2022/10/13 01:18:52;;;;;;;;;;;12.00;99.90;;;;;;5073652;28;19969;-65
2022/10/13 01:21:20;;;;;;;;;;;11.80;99.90;;;;;;5073452;28;19916;-66
2022/10/13 01:23:54;;;;;;;;;;;11.70;99.90;;;;;;5073789;28;19911;-65
2022/10/13 01:26:29;;;;;;;;;;;11.60;99.90;;;;;;5074247;28;19904;-65
2022/10/13 01:29:00;;;;;;;;;;;11.60;99.90;;;;;;5073809;28;19908;-66
2022/10/13 01:31:33;;;;;;;;;;;11.60;99.90;;;;;;5073534;28;19904;-65
2022/10/13 01:34:12;;;;;;;;;;;11.60;99.90;;;;;;5073368;28;19947;-65
2022/10/13 01:36:46;;;;;;;;;;;11.60;99.90;;;;;;5073580;28;19951;-66
2022/10/13 01:39:15;;;;;;;;;;;11.50;99.90;;;;;;5073460;28;20344;-66
2022/10/13 01:41:44;;;;;;;;;;;11.50;99.90;;;;;;5072570;28;20061;-66
2022/10/13 01:44:14;;;;;;;;;;;11.50;99.90;;;;;;5073347;28;19904;-66
2022/10/13 01:46:41;;;;;;;;;;;11.50;99.90;;;;;;5073318;28;19908;-66
2022/10/13 01:49:09;;;;;;;;;;;11.70;99.90;;;;;;5073185;28;19913;-66
2022/10/13 01:51:35;;;;;;;;;;;11.70;99.90;;;;;;5073173;28;20389;-65
2022/10/13 01:54:01;;;;;;;;;;;11.70;99.90;;;;;;5073306;28;20367;-65
2022/10/13 01:56:26;;;;;;;;;;;11.70;99.90;;;;;;5073421;28;19911;-65
2022/10/13 01:58:54;;;;;;;;;;;11.70;99.90;;;;;;5073113;28;20368;-65
2022/10/13 02:01:23;;;;;;;;;;;11.70;99.90;;;;;;5073278;28;20010;-65
2022/10/13 02:04:07;;;;;;;;;;;11.70;99.90;;;;;;5072706;28;20393;-65
2022/10/13 02:06:43;;;;;;;;;;;11.70;99.90;;;;;;5072892;28;20010;-65
2022/10/13 02:09:35;;;;;;;;;;;11.70;99.90;;;;;;5072492;28;19905;-65
2022/10/13 02:12:04;;;;;;;;;;;11.60;99.90;;;;;;5068803;28;19904;-65
2022/10/13 02:14:31;;;;;;;;;;;11.60;99.90;;;;;;5072956;28;19919;-65
2022/10/13 02:16:59;;;;;;;;;;;11.70;99.90;;;;;;5072663;28;20295;-65
2022/10/13 02:19:26;;;;;;;;;;;11.70;99.90;;;;;;5072776;28;19916;-65
2022/10/13 02:21:52;;;;;;;;;;;11.70;99.90;;;;;;5072682;28;19912;-66
2022/10/13 02:24:17;;;;;;;;;;;11.70;99.90;;;;;;5072708;28;19912;-65
2022/10/13 02:26:43;;;;;;;;;;;11.70;99.90;;;;;;5073136;28;19951;-66
2022/10/13 02:29:10;;;;;;;;;;;11.80;99.90;;;;;;5072824;28;19912;-66
2022/10/13 02:31:36;;;;;;;;;;;11.80;99.90;;;;;;5072289;28;20339;-66
2022/10/13 02:34:01;;;;;;;;;;;11.80;99.90;;;;;;5072812;28;19959;-66
2022/10/13 02:36:27;;;;;;;;;;;11.80;99.90;;;;;;5072559;28;19999;-66
2022/10/13 02:38:52;;;;;;;;;;;11.70;99.90;;;;;;5072441;28;19966;-65
2022/10/13 02:41:18;;;;;;;;;;;11.70;99.90;;;;;;5072709;28;19919;-65
2022/10/13 02:43:44;;;;;;;;;;;11.70;99.90;;;;;;5072506;28;20409;-65
2022/10/13 02:46:09;;;;;;;;;;;11.70;99.90;;;;;;5071879;28;20351;-65
2022/10/13 02:48:35;;;;;;;;;;;11.60;99.90;;;;;;5071164;28;20290;-66
2022/10/13 02:51:00;;;;;;;;;;;11.70;99.90;;;;;;5072663;28;20321;-66
2022/10/13 02:53:26;;;;;;;;;;;11.70;99.90;;;;;;5072338;28;19904;-66
2022/10/13 02:55:51;;;;;;;;;;;11.70;99.90;;;;;;5072402;28;20401;-66
2022/10/13 02:58:17;;;;;;;;;;;11.50;99.90;;;;;;5072186;28;19911;-66
2022/10/13 03:00:42;;;;;;;;;;;11.50;99.90;;;;;;5071895;28;19954;-65
2022/10/13 03:03:09;;;;;;;;;;;11.50;99.90;;;;;;5072277;28;19904;-65
2022/10/13 03:05:35;;;;;;;;;;;11.50;99.90;;;;;;5072631;28;19905;-65
2022/10/13 03:08:01;;;;;;;;;;;11.50;99.90;;;;;;5072158;28;20010;-66
2022/10/13 03:10:27;;;;;;;;;;;11.60;99.90;;;;;;5072273;28;19904;-65
2022/10/13 03:12:53;;;;;;;;;;;11.60;99.90;;;;;;5071908;28;19940;-66
2022/10/13 03:15:19;;;;;;;;;;;11.60;99.90;;;;;;5072100;28;19940;-65
2022/10/13 03:17:44;;;;;;;;;;;11.60;99.90;;;;;;5071913;28;20005;-65
2022/10/13 03:20:10;;;;;;;;;;;11.60;99.90;;;;;;5074355;28;19908;-65
2022/10/13 03:22:36;;;;;;;;;;;11.70;99.90;;;;;;5077835;28;20382;-65
2022/10/13 03:25:02;;;;;;;;;;;11.70;99.90;;;;;;5080429;28;19985;-66
2022/10/13 03:27:28;;;;;;;;;;;11.70;99.90;;;;;;5075774;28;19904;-65
2022/10/13 03:29:53;;;;;;;;;;;11.60;99.90;;;;;;5075853;28;19914;-65
2022/10/13 03:32:19;;;;;;;;;;;11.60;99.90;;;;;;5075795;28;19908;-65
2022/10/13 03:34:44;;;;;;;;;;;11.70;99.90;;;;;;5075637;28;19911;-65
2022/10/13 03:37:10;;;;;;;;;;;11.70;99.90;;;;;;5075711;28;19908;-65
2022/10/13 03:39:35;;;;;;;;;;;11.80;99.90;;;;;;5075580;28;20374;-65
2022/10/13 03:42:01;;;;;;;;;;;11.70;99.90;;;;;;5075677;28;20348;-66
2022/10/13 03:44:27;;;;;;;;;;;11.70;99.90;;;;;;5075492;28;19904;-65
2022/10/13 03:46:52;;;;;;;;;;;11.70;99.90;;;;;;5075889;28;19918;-65
2022/10/13 03:49:18;;;;;;;;;;;11.80;99.90;;;;;;5075699;28;19908;-65
2022/10/13 03:51:44;;;;;;;;;;;11.70;99.90;;;;;;5075995;28;19908;-66
2022/10/13 03:54:10;;;;;;;;;;;11.70;99.90;;;;;;5075777;28;19904;-66
2022/10/13 03:56:36;;;;;;;;;;;11.70;99.90;;;;;;5075350;28;20427;-65
2022/10/13 03:59:03;;;;;;;;;;;11.70;99.90;;;;;;5075247;28;19904;-65
2022/10/13 04:01:30;;;;;;;;;;;11.80;99.90;;;;;;5075377;28;19938;-65
2022/10/13 04:03:56;;;;;;;;;;;11.80;99.90;;;;;;5075258;28;19937;-65
2022/10/13 04:06:22;;;;;;;;;;;11.80;99.90;;;;;;5075849;28;20438;-65
2022/10/13 04:08:48;;;;;;;;;;;11.70;99.90;;;;;;5075246;28;19950;-65
2022/10/13 04:11:14;;;;;;;;;;;11.70;99.90;;;;;;5075048;28;19908;-66
2022/10/13 04:13:39;;;;;;;;;;;11.80;99.90;;;;;;5074893;28;19904;-65
2022/10/13 04:16:06;;;;;;;;;;;11.80;99.90;;;;;;5075022;28;19997;-65
2022/10/13 04:18:32;;;;;;;;;;;11.80;99.90;;;;;;5075019;28;19952;-65
2022/10/13 04:20:58;;;;;;;;;;;11.70;99.90;;;;;;5074170;28;19951;-65
2022/10/13 04:23:23;;;;;;;;;;;11.70;99.90;;;;;;5075100;28;19908;-65
2022/10/13 04:25:49;;;;;;;;;;;11.70;99.90;;;;;;5074856;28;20274;-65
2022/10/13 04:28:14;;;;;;;;;;;11.70;99.90;;;;;;5074559;28;19904;-65
2022/10/13 04:30:40;;;;;;;;;;;11.90;99.90;;;;;;5075041;28;19939;-66
2022/10/13 04:33:07;;;;;;;;;;;11.80;99.90;;;;;;5074706;28;19950;-65
2022/10/13 04:35:33;;;;;;;;;;;11.80;99.90;;;;;;5074862;28;19919;-66
2022/10/13 04:37:58;;;;;;;;;;;11.80;99.90;;;;;;5074664;28;19926;-65
2022/10/13 04:40:25;;;;;;;;;;;11.80;99.90;;;;;;5074707;28;19908;-65
2022/10/13 04:42:50;;;;;;;;;;;11.80;99.90;;;;;;5074651;28;19916;-65
2022/10/13 04:45:16;;;;;;;;;;;11.80;99.90;;;;;;5074540;28;19934;-66
2022/10/13 04:47:41;;;;;;;;;;;11.70;99.90;;;;;;5074638;28;19962;-65
2022/10/13 04:50:07;;;;;;;;;;;11.70;99.90;;;;;;5074557;28;19915;-65
2022/10/13 04:52:34;;;;;;;;;;;11.80;99.90;;;;;;5074403;28;20370;-66
2022/10/13 04:54:59;;;;;;;;;;;11.70;99.90;;;;;;5074374;28;19915;-65
2022/10/13 04:57:25;;;;;;;;;;;11.70;99.90;;;;;;5074548;28;19904;-65
2022/10/13 04:59:50;;;;;;;;;;;11.70;99.90;;;;;;5074441;28;19911;-65
2022/10/13 05:02:16;;;;;;;;;;;11.70;99.90;;;;;;5074242;28;19912;-65
2022/10/13 05:04:41;;;;;;;;;;;11.70;99.90;;;;;;5073912;28;19995;-65
2022/10/13 05:07:07;;;;;;;;;;;11.70;99.90;;;;;;5074214;28;19905;-65
2022/10/13 05:09:32;;;;;;;;;;;11.70;99.90;;;;;;5074479;28;20371;-65
2022/10/13 05:11:58;;;;;;;;;;;11.70;99.90;;;;;;5073633;28;19911;-65
2022/10/13 05:14:24;;;;;;;;;;;11.70;99.90;;;;;;5074021;28;19919;-65
2022/10/13 05:16:49;;;;;;;;;;;11.70;99.90;;;;;;5074196;28;19946;-65
2022/10/13 05:19:15;;;;;;;;;;;11.70;99.90;;;;;;5073811;28;19916;-65
2022/10/13 05:21:40;;;;;;;;;;;11.70;99.90;;;;;;5073991;28;19916;-65
2022/10/13 05:24:07;;;;;;;;;;;11.70;99.90;;;;;;5073827;28;19905;-65
2022/10/13 05:26:34;;;;;;;;;;;11.80;99.90;;;;;;5073630;28;19913;-65
2022/10/13 05:29:01;;;;;;;;;;;11.80;99.90;;;;;;5074084;28;20349;-65
2022/10/13 05:31:27;;;;;;;;;;;11.90;99.90;;;;;;5073766;28;20389;-65
2022/10/13 05:33:54;;;;;;;;;;;11.90;99.90;;;;;;5073547;28;19912;-65
2022/10/13 05:36:21;;;;;;;;;;;11.90;99.90;;;;;;5073683;28;19904;-65
2022/10/13 05:38:53;;;;;;;;;;;11.90;99.90;;;;;;5073879;28;19991;-65
2022/10/13 05:41:19;;;;;;;;;;;11.90;99.90;;;;;;5073408;28;20016;-65
2022/10/13 05:43:45;;;;;;;;;;;11.90;99.90;;;;;;5072835;28;19952;-65
2022/10/13 05:46:10;;;;;;;;;;;12.00;99.90;;;;;;5073328;28;20377;-65
2022/10/13 05:48:36;;;;;;;;;;;11.90;99.90;;;;;;5073544;28;19905;-65
2022/10/13 05:51:03;;;;;;;;;;;12.00;99.90;;;;;;5073719;28;19909;-65
2022/10/13 05:53:31;;;;;;;;;;;11.90;99.90;;;;;;5073333;28;19911;-65
2022/10/13 05:56:04;;;;;;;;;;;11.90;99.90;;;;;;5072982;28;19905;-65
2022/10/13 05:58:35;;;;;;;;;;;11.90;99.90;;;;;;5073290;28;19926;-65
2022/10/13 06:01:00;;;;;;;;;;;12.00;99.90;;;;;;5073180;28;19981;-65
2022/10/13 06:03:26;;;;;;;;;;;11.90;99.90;;;;;;5073494;28;20375;-65
2022/10/13 06:05:52;;;;;;;;;;;11.80;99.90;;;;;;5073191;28;19904;-66
2022/10/13 06:08:17;;;;;;;;;;;11.90;99.90;;;;;;5072991;28;19904;-64
2022/10/13 06:10:43;;;;;;;;;;;11.90;99.90;;;;;;5072542;28;19908;-65
2022/10/13 06:13:09;;;;;;;;;;;12.00;99.90;;;;;;5073122;28;20351;-64
2022/10/13 06:15:34;;;;;;;;;;;11.90;99.90;;;;;;5073114;28;19915;-65
2022/10/13 06:18:00;;;;;;;;;;;12.00;99.90;;;;;;5072682;28;19962;-65
2022/10/13 06:20:26;;;;;;;;;;;12.00;99.90;;;;;;5072716;28;19960;-65
2022/10/13 06:22:55;;;;;;;;;;;12.00;99.90;;;;;;5073249;28;19912;-65
2022/10/13 06:25:20;;;;;;;;;;;12.00;99.90;;;;;;5072344;28;19904;-65
2022/10/13 06:27:46;;;;;;;;;;;12.10;99.90;;;;;;5072308;28;19905;-64
2022/10/13 06:30:11;;;;;;;;;;;12.10;99.90;;;;;;5072642;28;20405;-63
2022/10/13 06:32:37;;;;;;;;;;;12.10;99.90;;;;;;5072507;28;20332;-63
2022/10/13 06:35:03;;;;;;;;;;;12.10;99.90;;;;;;5072759;28;19905;-64
2022/10/13 06:37:29;;;;;;;;;;;12.20;99.90;;;;;;5072386;28;19904;-64
2022/10/13 06:39:54;;;;;;;;;;;12.20;99.90;;;;;;5072160;28;19904;-65
2022/10/13 06:42:20;;;;;;;;;;;12.20;99.90;;;;;;5072457;28;19912;-64
2022/10/13 06:44:45;;;;;;;;;;;12.30;99.90;;;;;;5072523;28;19911;-63
2022/10/13 06:47:11;;;;;;;;;;;12.30;99.90;;;;;;5072429;28;19974;-63
2022/10/13 06:49:36;;;;;;;;;;;12.40;99.90;;;;;;5072291;28;19909;-64
2022/10/13 06:52:03;;;;;;;;;;;12.40;99.90;;;;;;5072173;28;19995;-63
2022/10/13 06:54:29;;;;;;;;;;;12.40;99.90;;;;;;5071841;28;20290;-64
2022/10/13 06:56:54;;;;;;;;;;;12.40;99.90;;;;;;5071083;28;19908;-63
2022/10/13 06:59:20;;;;;;;;;;;12.50;99.90;;;;;;5072387;28;20375;-63
2022/10/13 07:01:46;;;;;;;;;;;12.50;99.90;;;;;;5072524;28;19912;-64
2022/10/13 07:04:11;;;;;;;;;;;12.60;99.90;;;;;;5072374;28;19939;-63
2022/10/13 07:06:37;;;;;;;;;;;12.60;99.90;;;;;;5072182;28;19994;-63
2022/10/13 07:09:04;;;;;;;;;;;12.60;99.90;;;;;;5072096;28;19911;-63
2022/10/13 07:11:29;;;;;;;;;;;12.60;99.90;;;;;;5072077;28;19946;-64
2022/10/13 07:13:55;;;;;;;;;;;12.60;99.90;;;;;;5072101;28;19951;-63
2022/10/13 07:16:20;;;;;;;;;;;12.60;99.90;;;;;;5072453;28;19911;-65
2022/10/13 07:18:46;;;;;;;;;;;12.60;99.90;;;;;;5071831;28;19969;-63
2022/10/13 07:21:12;;;;;;;;;;;12.70;99.90;;;;;;5072001;28;19919;-64
2022/10/13 07:23:38;;;;;;;;;;;12.80;99.90;;;;;;5071739;28;20469;-63
2022/10/13 07:26:07;;;;;;;;;;;12.90;99.90;;;;;;5071959;28;19908;-65
2022/10/13 07:28:32;;;;;;;;;;;12.90;99.90;;;;;;5072386;28;19904;-64
2022/10/13 07:30:58;;;;;;;;;;;13.10;99.90;;;;;;5070798;28;19911;-63
2022/10/13 07:33:23;;;;;;;;;;;13.20;99.90;;;;;;5072076;28;20366;-65
2022/10/13 07:35:49;;;;;;;;;;;13.30;99.90;;;;;;5072428;28;20390;-63
2022/10/13 07:38:14;;;;;;;;;;;13.30;99.90;;;;;;5071730;28;20351;-63
2022/10/13 07:40:40;;;;;;;;;;;13.40;99.90;;;;;;5071217;28;20405;-63
2022/10/13 07:43:06;;;;;;;;;;;13.50;99.90;;;;;;5071948;28;19940;-64
2022/10/13 07:45:31;;;;;;;;;;;13.50;99.90;;;;;;5071734;28;20432;-65
2022/10/13 07:47:57;;;;;;;;;;;13.50;99.90;;;;;;5071840;28;20424;-64
2022/10/13 07:50:22;;;;;;;;;;;13.50;99.90;;;;;;5071763;28;19951;-65
2022/10/13 07:52:48;;;;;;;;;;;13.60;99.90;;;;;;5072821;28;19912;-65
2022/10/13 07:55:13;;;;;;;;;;;13.70;99.90;;;;;;5072014;28;20302;-64
2022/10/13 07:57:39;;;;;;;;;;;13.90;99.90;;;;;;5071887;28;19957;-64
2022/10/13 08:00:05;;;;;;;;;;;13.90;99.90;;;;;;5072160;28;20310;-65
2022/10/13 08:02:31;;;;;;;;;;;14.10;99.90;;;;;;5071910;28;19908;-64
2022/10/13 08:04:56;;;;;;;;;;;14.20;99.90;;;;;;5071511;28;19905;-65
2022/10/13 08:07:22;;;;;;;;;;;14.10;99.90;;;;;;5073642;28;19949;-69
2022/10/13 08:09:47;;;;;;;;;;;14.30;99.90;;;;;;5075641;28;20279;-69
2022/10/13 08:12:13;;;;;;;;;;;14.40;99.90;;;;;;5075679;28;19908;-69
2022/10/13 08:14:39;;;;;;;;;;;14.50;99.90;;;;;;5075125;28;19909;-70
2022/10/13 08:17:04;;;;;;;;;;;14.40;99.90;;;;;;5075421;28;19995;-69
2022/10/13 08:19:30;;;;;;;;;;;14.50;99.90;;;;;;5075086;28;19908;-69
2022/10/13 08:21:55;;;;;;;;;;;14.50;99.90;;;;;;5074920;28;19919;-69
2022/10/13 08:24:23;;;;;;;;;;;14.70;99.90;;;;;;5075602;28;19908;-69
2022/10/13 08:26:49;;;;;;;;;;;14.90;99.90;;;;;;5075154;28;20436;-69
2022/10/13 08:29:15;;;;;;;;;;;15.00;99.90;;;;;;5075001;28;19904;-70
2022/10/13 08:31:41;;;;;;;;;;;15.00;99.90;;;;;;5075238;28;19930;-70
2022/10/13 08:34:07;;;;;;;;;;;15.20;99.90;;;;;;5075138;28;19908;-70
2022/10/13 08:36:33;;;;;;;;;;;15.20;99.90;;;;;;5075154;28;19950;-70
2022/10/13 08:38:59;;;;;;;;;;;15.30;99.90;;;;;;5074958;28;19935;-70
2022/10/13 08:41:27;;;;;;;;;;;15.40;99.90;;;;;;5075170;28;19920;-70
2022/10/13 08:43:57;;;;;;;;;;;15.40;99.90;;;;;;5074856;28;19904;-70
2022/10/13 08:46:28;;;;;;;;;;;15.60;99.90;;;;;;5074600;28;20418;-70
2022/10/13 08:48:54;;;;;;;;;;;15.60;99.90;;;;;;5074156;28;19935;-68
2022/10/13 08:51:19;;;;;;;;;;;15.60;99.90;;;;;;5074636;28;19905;-69
2022/10/13 08:53:45;;;;;;;;;;;15.90;99.90;;;;;;5074680;28;19904;-68
2022/10/13 08:56:20;;;;;;;;;;;16.00;99.90;;;;;;5074569;28;19904;-69
2022/10/13 08:58:47;;;;;;;;;;;16.10;99.90;;;;;;5074444;28;19910;-70
2022/10/13 09:01:18;;;;;;;;;;;16.50;99.90;;;;;;5074001;28;20050;-70
2022/10/13 09:03:47;;;;;;;;;;;16.70;99.90;;;;;;5074143;28;19909;-70
2022/10/13 09:06:12;;;;;;;;;;;17.50;99.90;;;;;;5074185;28;19909;-70
2022/10/13 09:09:01;;;;;;;;;;;17.30;99.90;;;;;;5074628;28;19905;-70
2022/10/13 09:11:28;;;;;;;;;;;17.30;99.90;;;;;;5063359;28;19945;-71
2022/10/13 09:13:54;;;;;;;;;;;17.90;99.90;;;;;;5074270;28;19988;-70
2022/10/13 09:16:46;;;;;;;;;;;18.10;99.90;;;;;;5073988;28;19904;-69
2022/10/13 09:19:12;;;;;;;;;;;18.50;99.90;;;;;;5070466;28;19923;-69
2022/10/13 09:21:37;;;;;;;;;;;18.70;99.90;;;;;;5074018;28;19912;-69
2022/10/13 09:24:06;;;;;;;;;;;19.10;99.90;;;;;;5074125;28;20347;-70
2022/10/13 09:26:36;;;;;;;;;;;19.10;99.90;;;;;;5074344;28;19958;-71
2022/10/13 09:29:07;;;;;;;;;;;19.40;99.90;;;;;;5073640;28;19909;-71
2022/10/13 09:31:34;;;;;;;;;;;19.10;99.90;;;;;;5073410;28;20363;-71
2022/10/13 09:34:01;;;;;;;;;;;19.20;99.90;;;;;;5073800;28;20355;-71
2022/10/13 09:36:27;;;;;;;;;;;19.40;99.90;;;;;;5073684;28;19954;-71
2022/10/13 09:39:19;;;;;;;;;;;19.70;99.90;;;;;;5074048;28;20362;-71
2022/10/13 09:41:45;;;;;;;;;;;20.30;99.90;;;;;;5070064;28;19965;-69
2022/10/13 09:44:12;;;;;;;;;;;20.70;99.90;;;;;;5073671;28;19909;-71
2022/10/13 09:46:45;;;;;;;;;;;20.80;99.90;;;;;;5073144;28;19913;-70
2022/10/13 09:49:31;;;;;;;;;;;20.80;99.90;;;;;;5073789;28;20492;-69
2022/10/13 09:52:01;;;;;;;;;;;22.00;99.90;;;;;;5072928;28;19912;-70
2022/10/13 09:54:35;;;;;;;;;;;23.30;99.90;;;;;;5073705;28;20375;-71
2022/10/13 09:57:03;;;;;;;;;;;22.90;99.90;;;;;;5073478;28;19957;-70
2022/10/13 09:59:36;;;;;;;;;;;22.50;99.90;;;;;;5073361;28;19959;-71
2022/10/13 10:02:31;;;;;;;;;;;21.30;99.90;;;;;;5072778;28;19920;-71
2022/10/13 10:04:59;;;;;;;;;;;21.20;99.90;;;;;;5011689;28;19905;-70
2022/10/13 10:07:27;;;;;;;;;;;21.20;99.90;;;;;;5011422;28;19906;-70
2022/10/13 10:09:55;;;;;;;;;;;21.40;99.90;;;;;;5011445;28;20384;-71
2022/10/13 10:12:22;;;;;;;;;;;21.30;99.90;;;;;;5011055;28;19906;-70
2022/10/13 10:14:49;;;;;;;;;;;21.20;99.90;;;;;;5010787;28;19906;-71
2022/10/13 10:17:33;;;;;;;;;;;21.00;99.90;;;;;;5010301;28;19922;-71
2022/10/13 10:20:13;;;;;;;;;;;20.90;99.90;;;;;;5010234;28;19909;-68
2022/10/13 10:22:42;;;;;;;;;;;21.00;99.90;;;;;;5010877;28;19914;-69
2022/10/13 10:25:28;;;;;;;;;;;21.00;99.90;;;;;;5010986;28;19944;-67
2022/10/13 10:28:12;;;;;;;;;;;21.10;99.90;;;;;;5010599;28;19909;-67
2022/10/13 10:30:42;;;;;;;;;;;21.10;99.90;;;;;;5010004;28;19913;-67
2022/10/13 10:33:10;;;;;;;;;;;20.90;99.90;;;;;;5011181;28;19959;-67
2022/10/13 10:36:15;;;;;;;;;;;20.60;99.90;;;;;;5011140;28;19905;-67
2022/10/13 10:38:48;;;;;;;;;;;20.70;99.90;;;;;;4972063;28;19906;-66
2022/10/13 10:41:40;;;;;;;;;;;20.90;99.90;;;;;;4989305;28;19968;-66
2022/10/13 10:44:26;;;;;;;;;;;20.80;99.90;;;;;;5008724;28;19912;-66
2022/10/13 10:46:53;;;;;;;;;;;21.00;99.90;;;;;;5010359;28;19913;-66
2022/10/13 10:49:24;;;;;;;;;;;21.40;99.90;;;;;;5010957;28;20462;-66
2022/10/13 10:51:50;;;;;;;;;;;21.60;99.90;;;;;;5010674;28;19913;-65
2022/10/13 10:54:16;;;;;;;;;;;21.80;99.90;;;;;;5010875;28;20003;-66
2022/10/13 10:56:43;;;;;;;;;;;22.40;99.90;;;;;;5010568;28;20000;-66
2022/10/13 10:59:17;;;;;;;;;;;22.40;99.90;;;;;;5010379;28;19931;-66
2022/10/13 11:01:55;;;;;;;;;;;22.60;99.90;;;;;;5010577;28;20011;-66
2022/10/13 11:04:39;;;;;;;;;;;23.20;99.90;;;;;;5010764;28;19913;-66
2022/10/13 11:07:22;;;;;;;;;;;23.10;99.90;;;;;;5010557;28;19909;-66
2022/10/13 11:09:48;;;;;;;;;;;23.30;99.90;;;;;;5010369;28;20128;-65
2022/10/13 11:12:19;;;;;;;;;;;23.00;99.90;;;;;;5010405;28;19999;-66
2022/10/13 11:15:06;;;;;;;;;;;23.10;99.90;;;;;;5041549;28;19942;-66
2022/10/13 11:17:31;;;;;;;;;;;23.10;99.90;;;;;;5051912;28;19999;-66
2022/10/13 11:19:57;;;;;;;;;;;23.20;99.90;;;;;;5051968;28;19951;-66
2022/10/13 11:22:23;;;;;;;;;;;23.30;99.90;;;;;;5052671;28;19920;-66
2022/10/13 11:25:14;;;;;;;;;;;23.30;99.90;;;;;;5052205;28;19920;-66
2022/10/13 11:27:41;;;;;;;;;;;23.10;99.90;;;;;;5010140;28;20642;-66
2022/10/13 11:30:29;;;;;;;;;;;22.80;99.90;;;;;;5009705;28;19959;-66
2022/10/13 11:32:55;;;;;;;;;;;22.40;99.90;;;;;;5010185;28;19906;-66
2022/10/13 11:35:22;;;;;;;;;;;22.10;99.90;;;;;;5010349;28;19977;-66
2022/10/13 11:37:54;;;;;;;;;;;22.20;99.90;;;;;;5010197;28;20008;-66
2022/10/13 11:40:23;;;;;;;;;;;22.00;99.90;;;;;;5009967;28;19948;-65
2022/10/13 11:43:07;;;;;;;;;;;22.10;99.90;;;;;;5013047;28;19909;-66
2022/10/13 11:46:02;;;;;;;;;;;22.20;99.90;;;;;;5005131;28;19980;-66
2022/10/13 11:48:49;;;;;;;;;;;22.40;99.90;;;;;;4955597;29;20011;-66
2022/10/13 11:51:30;;;;;;;;;;;22.50;99.90;;;;;;4955380;29;19938;-66
2022/10/13 11:54:12;;;;;;;;;;;22.50;99.90;;;;;;4955515;29;19910;-66
2022/10/13 11:56:46;;;;;;;;;;;22.50;99.90;;;;;;4955654;29;19913;-66
2022/10/13 11:59:21;;;;;;;;;;;22.50;99.90;;;;;;4954921;29;20014;-66
2022/10/13 12:01:46;;;;;;;;;;;22.50;99.90;;;;;;4955111;29;20384;-66
2022/10/13 12:04:13;;;;;;;;;;;22.30;99.90;;;;;;4970300;28;19992;-66
2022/10/13 12:06:39;;;;;;;;;;;22.10;99.90;;;;;;4994267;28;19905;-66
2022/10/13 12:09:14;;;;;;;;;;;22.20;99.90;;;;;;4994010;28;19992;-66
2022/10/13 12:11:40;;;;;;;;;;;22.30;99.90;;;;;;5001538;28;20350;-66
2022/10/13 12:14:15;;;;;;;;;;;22.20;99.90;;;;;;5013528;28;19905;-66
2022/10/13 12:16:51;;;;;;;;;;;22.00;99.90;;;;;;5013580;28;19967;-66
2022/10/13 12:19:20;;;;;;;;;;;22.40;99.90;;;;;;5013202;28;19917;-66
2022/10/13 12:21:49;;;;;;;;;;;22.40;99.90;;;;;;5013219;28;19917;-66
2022/10/13 12:24:15;;;;;;;;;;;22.50;99.90;;;;;;5023545;28;19994;-66
2022/10/13 12:26:40;;;;;;;;;;;22.40;99.90;;;;;;5054439;28;19963;-66
2022/10/13 12:29:10;;;;;;;;;;;22.40;99.90;;;;;;5054734;28;19911;-66
2022/10/13 12:31:40;;;;;;;;;;;22.40;99.90;;;;;;5054354;28;19999;-68
2022/10/13 12:34:17;;;;;;;;;;;22.50;99.90;;;;;;5055200;28;19905;-67
2022/10/13 12:36:44;;;;;;;;;;;22.50;99.90;;;;;;5055071;28;19908;-68
2022/10/13 12:39:12;;;;;;;;;;;22.50;99.90;;;;;;5054397;28;19912;-68
2022/10/13 12:41:39;;;;;;;;;;;22.60;99.90;;;;;;5054259;28;19920;-68
2022/10/13 12:44:06;;;;;;;;;;;22.90;99.90;;;;;;5055080;28;19904;-68
2022/10/13 12:46:40;;;;;;;;;;;22.80;99.90;;;;;;5071705;28;20378;-68
2022/10/13 12:49:06;;;;;;;;;;;22.90;99.90;;;;;;5074899;28;19908;-68
2022/10/13 12:51:34;;;;;;;;;;;22.80;99.90;;;;;;5074498;28;20003;-68
2022/10/13 12:54:04;;;;;;;;;;;22.40;99.90;;;;;;5074225;28;20341;-68
2022/10/13 12:56:30;;;;;;;;;;;22.50;99.90;;;;;;5074549;28;19995;-68
2022/10/13 12:58:56;;;;;;;;;;;22.50;99.90;;;;;;5074403;28;20007;-68
2022/10/13 13:01:28;;;;;;;;;;;22.40;99.90;;;;;;5074463;28;20014;-68
2022/10/13 13:04:19;;;;;;;;;;;22.40;99.90;;;;;;5074502;28;20325;-68
2022/10/13 13:06:55;;;;;;;;;;;22.50;99.90;;;;;;5070246;28;19908;-68
2022/10/13 13:09:47;;;;;;;;;;;22.80;99.90;;;;;;5074326;28;20516;-68
2022/10/13 13:12:21;;;;;;;;;;;22.80;99.90;;;;;;4992947;28;19979;-68
2022/10/13 13:14:48;;;;;;;;;;;22.50;99.90;;;;;;4992709;28;19913;-68
2022/10/13 13:17:16;;;;;;;;;;;22.40;99.90;;;;;;4992557;28;20338;-68
2022/10/13 13:19:46;;;;;;;;;;;22.30;99.90;;;;;;4992674;28;20017;-68
2022/10/13 13:22:12;;;;;;;;;;;22.50;99.90;;;;;;4992984;28;19968;-68
2022/10/13 13:24:37;;;;;;;;;;;22.40;99.90;;;;;;4992329;28;20427;-68
2022/10/13 13:27:15;;;;;;;;;;;22.40;99.90;;;;;;4992666;28;20420;-68
2022/10/13 13:29:40;;;;;;;;;;;22.30;99.90;;;;;;4992599;28;19906;-68
2022/10/13 13:32:08;;;;;;;;;;;22.50;99.90;;;;;;4992536;28;19906;-67
2022/10/13 13:34:34;;;;;;;;;;;22.60;99.90;;;;;;4992301;28;19973;-68
2022/10/13 13:37:00;;;;;;;;;;;22.60;99.90;;;;;;4992144;28;20368;-68
2022/10/13 13:39:26;;;;;;;;;;;22.40;99.90;;;;;;4992347;28;19906;-68
2022/10/13 13:41:51;;;;;;;;;;;22.30;99.90;;;;;;4991704;28;20408;-67
2022/10/13 13:44:17;;;;;;;;;;;22.30;99.90;;;;;;4992244;28;20356;-68
2022/10/13 13:46:42;;;;;;;;;;;22.20;99.90;;;;;;4992374;28;20004;-68
2022/10/13 13:49:10;;;;;;;;;;;22.30;99.90;;;;;;5026492;28;20363;-68
2022/10/13 13:51:35;;;;;;;;;;;22.20;99.90;;;;;;5053711;28;19912;-68
2022/10/13 13:54:01;;;;;;;;;;;22.10;99.90;;;;;;5053124;28;19905;-67
2022/10/13 13:56:27;;;;;;;;;;;22.00;99.90;;;;;;5053516;28;19905;-68
2022/10/13 13:58:52;;;;;;;;;;;22.00;99.90;;;;;;5053719;28;19904;-68
2022/10/13 14:01:18;;;;;;;;;;;22.10;99.90;;;;;;5053364;28;19913;-68
2022/10/13 14:03:44;;;;;;;;;;;22.00;99.90;;;;;;5052530;28;20347;-68
2022/10/13 14:06:15;;;;;;;;;;;22.20;99.90;;;;;;5053126;28;19905;-68
2022/10/13 14:08:41;;;;;;;;;;;22.00;99.90;;;;;;5052997;28;19991;-68
2022/10/13 14:11:08;;;;;;;;;;;21.90;99.90;;;;;;5056877;28;19916;-68
2022/10/13 14:13:33;;;;;;;;;;;21.80;99.90;;;;;;5072914;28;19955;-68
2022/10/13 14:15:59;;;;;;;;;;;21.90;99.90;;;;;;5072943;28;19954;-68
2022/10/13 14:18:26;;;;;;;;;;;21.90;99.90;;;;;;5072857;28;19916;-67
2022/10/13 14:20:51;;;;;;;;;;;21.90;99.90;;;;;;5072866;28;19981;-68
2022/10/13 14:23:17;;;;;;;;;;;22.10;99.90;;;;;;5072674;28;19987;-68
2022/10/13 14:25:42;;;;;;;;;;;21.90;99.90;;;;;;5072890;28;19911;-68